Time;durP1;ratioP1;P1;durP2;ratioP2;P2;SDS_P1;SDS_P2;PMS_P1;PMS_P2;Temp;Humidity;BMP_temperature;BMP_pressure;BME280_temperature;BME280_humidity;BME280_pressure;Samples;Min_cycle;Max_cycle;Signal;HPM_P1;HPM_P2
2021/05/24 00:00:36;;;;;;;0.00;0.00;;;12.20;82.30;;;;;;5126936;27;20043;-71
2021/05/24 00:03:03;;;;;;;0.00;0.00;;;12.20;82.20;;;;;;5129535;27;20047;-72
2021/05/24 00:05:32;;;;;;;0.00;0.00;;;12.20;82.10;;;;;;5115314;28;20051;-72
2021/05/24 00:07:59;;;;;;;0.00;0.00;;;12.20;82.30;;;;;;5116311;27;20068;-72
2021/05/24 00:10:28;;;;;;;0.00;0.00;;;12.20;82.40;;;;;;5124553;27;20051;-72
2021/05/24 00:12:57;;;;;;;0.00;0.00;;;12.20;82.40;;;;;;5111931;28;20537;-72
2021/05/24 00:15:27;;;;;;;0.00;0.00;;;12.20;82.40;;;;;;5115329;28;20047;-72
2021/05/24 00:17:54;;;;;;;0.00;0.00;;;12.20;82.20;;;;;;5115471;28;20093;-71
2021/05/24 00:20:23;;;;;;;0.00;0.00;;;12.20;82.10;;;;;;5115153;28;20039;-72
2021/05/24 00:22:50;;;;;;;0.00;0.00;;;12.20;82.10;;;;;;5115336;28;20055;-71
2021/05/24 00:25:18;;;;;;;0.00;0.00;;;12.10;81.90;;;;;;5096848;28;20059;-72
2021/05/24 00:27:44;;;;;;;0.00;0.00;;;12.10;82.00;;;;;;5115097;28;20451;-72
2021/05/24 00:30:12;;;;;;;0.00;0.00;;;12.10;82.00;;;;;;5115028;28;20054;-72
2021/05/24 00:32:38;;;;;;;0.10;0.10;;;12.10;81.80;;;;;;5116181;27;20051;-72
2021/05/24 00:35:06;;;;;;;0.10;0.10;;;12.10;81.90;;;;;;5121432;27;20060;-72
2021/05/24 00:37:33;;;;;;;0.00;0.00;;;12.10;81.90;;;;;;5114484;28;20415;-72
2021/05/24 00:39:59;;;;;;;0.10;0.10;;;12.10;81.80;;;;;;5122807;27;20402;-72
2021/05/24 00:42:26;;;;;;;0.00;0.00;;;12.10;81.70;;;;;;5116628;27;20039;-72
2021/05/24 00:44:53;;;;;;;0.00;0.00;;;12.10;81.60;;;;;;5120975;27;20055;-72
2021/05/24 00:47:19;;;;;;;0.10;0.10;;;12.10;81.70;;;;;;5114449;28;20047;-71
2021/05/24 00:49:46;;;;;;;0.00;0.00;;;12.00;81.50;;;;;;5113980;27;20423;-71
2021/05/24 00:52:13;;;;;;;0.00;0.00;;;12.00;81.60;;;;;;5114690;28;20052;-72
2021/05/24 00:54:41;;;;;;;0.10;0.10;;;12.00;81.50;;;;;;5114784;28;20048;-71
2021/05/24 00:57:08;;;;;;;0.00;0.00;;;12.00;81.60;;;;;;5114654;28;20128;-71
2021/05/24 00:59:36;;;;;;;0.00;0.00;;;12.00;81.70;;;;;;5114261;28;20036;-71
2021/05/24 01:02:04;;;;;;;0.08;0.08;;;12.00;81.80;;;;;;5114010;28;20085;-72
2021/05/24 01:04:34;;;;;;;0.00;0.00;;;12.00;81.70;;;;;;5114053;28;20069;-71
2021/05/24 01:07:02;;;;;;;0.00;0.00;;;12.00;81.60;;;;;;5122268;27;20119;-72
2021/05/24 01:09:29;;;;;;;0.00;0.00;;;12.00;81.40;;;;;;5116237;27;20123;-71
2021/05/24 01:11:56;;;;;;;0.00;0.00;;;12.00;81.40;;;;;;5107587;27;20044;-71
2021/05/24 01:14:22;;;;;;;0.00;0.00;;;12.00;81.60;;;;;;5110263;28;20047;-72
2021/05/24 01:16:52;;;;;;;0.10;0.10;;;12.00;81.70;;;;;;5099662;28;20056;-72
2021/05/24 01:19:19;;;;;;;0.10;0.10;;;12.00;81.60;;;;;;5107412;28;20201;-71
2021/05/24 01:21:46;;;;;;;0.00;0.00;;;12.00;81.50;;;;;;5099758;28;20066;-72
2021/05/24 01:24:13;;;;;;;0.00;0.00;;;12.00;81.50;;;;;;5114197;28;20047;-71
2021/05/24 01:26:42;;;;;;;0.10;0.10;;;11.90;81.30;;;;;;5114430;27;20119;-71
2021/05/24 01:29:09;;;;;;;0.00;0.00;;;11.90;81.60;;;;;;5103258;28;20784;-71
2021/05/24 01:31:35;;;;;;;0.00;0.00;;;11.90;81.60;;;;;;5093456;28;20052;-71
2021/05/24 01:34:02;;;;;;;0.00;0.00;;;11.90;81.70;;;;;;5102012;28;20130;-71
2021/05/24 01:36:30;;;;;;;0.10;0.10;;;11.90;81.70;;;;;;5122329;27;20047;-72
2021/05/24 01:38:56;;;;;;;0.00;0.00;;;11.90;81.90;;;;;;5118470;27;20058;-71
2021/05/24 01:41:23;;;;;;;0.00;0.00;;;11.90;82.00;;;;;;5120829;27;20047;-72
2021/05/24 01:43:49;;;;;;;0.00;0.00;;;11.90;82.00;;;;;;5114766;27;20525;-71
2021/05/24 01:46:16;;;;;;;0.10;0.10;;;11.90;82.20;;;;;;5112396;27;20105;-72
2021/05/24 01:48:42;;;;;;;0.00;0.00;;;11.90;83.00;;;;;;5110186;28;20518;-72
2021/05/24 01:51:09;;;;;;;0.00;0.00;;;11.90;82.10;;;;;;5113831;27;20046;-72
2021/05/24 01:53:37;;;;;;;0.10;0.10;;;11.90;82.10;;;;;;5108233;28;20054;-72
2021/05/24 01:56:04;;;;;;;0.03;0.03;;;11.90;82.10;;;;;;5120453;27;20461;-71
2021/05/24 01:58:31;;;;;;;0.03;0.03;;;11.90;82.10;;;;;;5113370;28;20047;-72
2021/05/24 02:01:06;;;;;;;0.00;0.00;;;11.90;82.30;;;;;;5112980;28;20515;-72
2021/05/24 02:03:33;;;;;;;0.00;0.00;;;11.90;82.20;;;;;;5094783;28;20069;-72
2021/05/24 02:06:01;;;;;;;0.10;0.10;;;11.90;82.20;;;;;;5112986;28;20114;-72
2021/05/24 02:08:28;;;;;;;0.00;0.00;;;11.90;82.20;;;;;;5113952;27;20487;-72
2021/05/24 02:10:55;;;;;;;0.10;0.10;;;11.90;82.30;;;;;;5114516;27;20089;-72
2021/05/24 02:13:21;;;;;;;0.10;0.10;;;11.90;82.30;;;;;;5112793;28;20134;-72
2021/05/24 02:15:48;;;;;;;0.00;0.00;;;11.90;82.30;;;;;;5123653;27;20085;-72
2021/05/24 02:18:15;;;;;;;0.00;0.00;;;11.90;82.30;;;;;;5112700;27;20040;-72
2021/05/24 02:20:41;;;;;;;0.00;0.00;;;11.90;82.20;;;;;;5094283;28;20044;-72
2021/05/24 02:23:09;;;;;;;0.00;0.00;;;12.00;82.10;;;;;;5112811;28;20123;-72
2021/05/24 02:25:36;;;;;;;0.10;0.10;;;12.00;82.10;;;;;;5113040;28;20051;-72
2021/05/24 02:28:03;;;;;;;0.10;0.10;;;12.00;82.10;;;;;;5112876;28;20043;-72
2021/05/24 02:30:30;;;;;;;0.00;0.00;;;12.00;82.20;;;;;;5112636;28;20058;-71
2021/05/24 02:32:56;;;;;;;0.10;0.10;;;11.90;82.20;;;;;;5112555;28;20129;-72
2021/05/24 02:35:25;;;;;;;0.00;0.00;;;11.90;82.30;;;;;;5115217;27;20137;-73
2021/05/24 02:37:52;;;;;;;0.00;0.00;;;11.90;82.30;;;;;;5131311;27;20051;-71
2021/05/24 02:40:19;;;;;;;0.00;0.00;;;11.90;82.30;;;;;;5112661;28;20044;-71
2021/05/24 02:42:46;;;;;;;0.10;0.10;;;11.90;82.30;;;;;;5112467;28;20047;-72
2021/05/24 02:45:14;;;;;;;0.00;0.00;;;11.90;82.40;;;;;;5112023;28;20039;-72
2021/05/24 02:47:41;;;;;;;0.00;0.00;;;11.90;82.40;;;;;;5112874;28;20122;-72
2021/05/24 02:50:13;;;;;;;0.10;0.10;;;11.90;82.50;;;;;;5112300;28;20128;-72
2021/05/24 02:52:39;;;;;;;0.00;0.00;;;11.90;82.50;;;;;;5112532;28;20090;-72
2021/05/24 02:55:07;;;;;;;0.00;0.00;;;11.90;82.70;;;;;;5112328;28;20051;-72
2021/05/24 02:57:35;;;;;;;0.00;0.00;;;11.80;82.90;;;;;;5112369;28;20101;-72
2021/05/24 03:00:01;;;;;;;0.10;0.10;;;11.80;82.80;;;;;;5111677;28;20458;-72
2021/05/24 03:02:29;;;;;;;0.00;0.00;;;11.90;83.00;;;;;;5112264;28;20035;-72
2021/05/24 03:04:56;;;;;;;0.00;0.00;;;11.90;82.80;;;;;;5112615;28;20089;-72
2021/05/24 03:07:22;;;;;;;0.05;0.05;;;11.90;82.80;;;;;;5111891;28;20051;-72
2021/05/24 03:09:49;;;;;;;0.03;0.03;;;11.90;83.00;;;;;;5112403;28;20054;-72
2021/05/24 03:12:15;;;;;;;0.00;0.00;;;11.90;83.30;;;;;;5100034;28;20050;-72
2021/05/24 03:14:42;;;;;;;0.10;0.10;;;11.90;83.10;;;;;;5112854;27;20052;-71
2021/05/24 03:17:08;;;;;;;0.10;0.10;;;11.90;83.00;;;;;;5115681;28;20052;-71
2021/05/24 03:19:35;;;;;;;0.00;0.00;;;11.90;83.10;;;;;;5111374;27;20095;-72
2021/05/24 03:22:01;;;;;;;0.03;0.03;;;11.80;83.00;;;;;;5122262;27;20612;-72
2021/05/24 03:24:27;;;;;;;0.00;0.00;;;11.80;82.90;;;;;;5111778;28;20082;-72
2021/05/24 03:26:54;;;;;;;0.00;0.00;;;11.90;82.90;;;;;;5116005;28;20047;-72
2021/05/24 03:29:20;;;;;;;0.10;0.10;;;11.90;82.90;;;;;;5111509;28;20650;-72
2021/05/24 03:31:47;;;;;;;0.00;0.00;;;11.80;83.30;;;;;;5111730;27;20052;-72
2021/05/24 03:34:13;;;;;;;0.00;0.00;;;11.80;83.40;;;;;;5119520;28;20491;-73
2021/05/24 03:36:39;;;;;;;0.00;0.00;;;11.70;84.50;;;;;;5093170;28;20056;-72
2021/05/24 03:39:06;;;;;;;0.00;0.00;;;11.60;83.80;;;;;;5092778;28;20039;-72
2021/05/24 03:41:32;;;;;;;0.00;0.00;;;11.60;84.00;;;;;;5076000;28;20078;-72
2021/05/24 03:43:59;;;;;;;0.05;0.05;;;11.60;84.20;;;;;;5111694;28;20047;-72
2021/05/24 03:46:25;;;;;;;0.00;0.00;;;11.60;85.00;;;;;;5111482;28;20048;-72
2021/05/24 03:48:52;;;;;;;0.10;0.10;;;11.60;84.30;;;;;;5112024;28;20131;-72
2021/05/24 03:51:18;;;;;;;0.00;0.00;;;11.60;84.20;;;;;;5092833;28;20040;-71
2021/05/24 03:53:44;;;;;;;0.00;0.00;;;11.60;84.20;;;;;;5111535;28;20160;-72
2021/05/24 03:56:12;;;;;;;0.10;0.10;;;11.60;84.60;;;;;;5111887;28;20079;-71
2021/05/24 03:58:40;;;;;;;0.00;0.00;;;11.60;84.50;;;;;;5111409;28;20167;-72
2021/05/24 04:01:06;;;;;;;0.00;0.00;;;11.60;84.40;;;;;;5111726;28;20063;-71
2021/05/24 04:03:33;;;;;;;0.10;0.10;;;11.60;84.30;;;;;;5117537;28;20043;-72
2021/05/24 04:06:05;;;;;;;0.10;0.10;;;11.60;84.30;;;;;;5111618;28;20052;-72
2021/05/24 04:08:49;;;;;;;0.00;0.00;;;11.60;84.20;;;;;;5111258;28;20040;-71
2021/05/24 04:11:15;;;;;;;0.00;0.00;;;11.70;84.10;;;;;;5103887;28;20044;-72
2021/05/24 04:13:46;;;;;;;0.00;0.00;;;11.70;84.20;;;;;;5106575;28;20063;-72
2021/05/24 04:16:13;;;;;;;0.10;0.10;;;11.60;84.70;;;;;;5123474;28;20051;-71
2021/05/24 04:18:43;;;;;;;0.00;0.00;;;11.60;84.60;;;;;;5092779;28;20047;-71
2021/05/24 04:21:10;;;;;;;0.00;0.00;;;11.60;84.70;;;;;;5111306;28;20513;-71
2021/05/24 04:23:36;;;;;;;0.00;0.00;;;11.50;84.80;;;;;;5111393;28;20419;-71
2021/05/24 04:26:03;;;;;;;0.00;0.00;;;11.50;84.70;;;;;;5111224;28;20115;-71
2021/05/24 04:28:29;;;;;;;0.00;0.00;;;11.50;84.70;;;;;;5111061;28;20410;-71
2021/05/24 04:30:55;;;;;;;0.00;0.00;;;11.50;85.00;;;;;;5111562;28;20575;-71
2021/05/24 04:33:22;;;;;;;0.05;0.05;;;11.50;85.20;;;;;;5110580;28;20078;-71
2021/05/24 04:35:48;;;;;;;0.00;0.00;;;11.40;86.20;;;;;;5117291;28;20498;-72
2021/05/24 04:38:15;;;;;;;0.10;0.10;;;11.40;85.20;;;;;;5115186;28;20083;-71
2021/05/24 04:40:41;;;;;;;0.00;0.00;;;11.50;85.20;;;;;;5114554;28;20039;-73
2021/05/24 04:43:07;;;;;;;0.10;0.10;;;11.50;84.90;;;;;;5114753;28;20126;-72
2021/05/24 04:45:34;;;;;;;0.00;0.00;;;11.60;84.80;;;;;;5114929;28;20122;-72
2021/05/24 04:48:00;;;;;;;0.00;0.00;;;11.60;84.70;;;;;;5117934;27;20050;-71
2021/05/24 04:50:27;;;;;;;0.00;0.00;;;11.70;84.60;;;;;;5100613;28;20048;-72
2021/05/24 04:52:53;;;;;;;0.10;0.10;;;11.60;84.40;;;;;;5114914;28;20418;-71
2021/05/24 04:55:20;;;;;;;0.00;0.00;;;11.70;84.40;;;;;;5113904;28;20048;-72
2021/05/24 04:57:47;;;;;;;0.00;0.00;;;11.70;84.30;;;;;;5114961;28;20079;-71
2021/05/24 05:00:14;;;;;;;0.00;0.00;;;11.70;84.20;;;;;;5114311;28;20059;-71
2021/05/24 05:02:40;;;;;;;0.08;0.08;;;11.70;84.20;;;;;;5114801;27;20289;-71
2021/05/24 05:05:09;;;;;;;0.00;0.00;;;11.60;84.00;;;;;;5119463;27;20096;-71
2021/05/24 05:07:36;;;;;;;0.00;0.00;;;11.70;84.00;;;;;;5114498;28;20077;-71
2021/05/24 05:10:03;;;;;;;0.00;0.00;;;11.60;84.00;;;;;;5114240;28;20054;-71
2021/05/24 05:12:30;;;;;;;0.05;0.05;;;11.50;84.20;;;;;;5124220;27;20040;-72
2021/05/24 05:14:57;;;;;;;0.08;0.08;;;11.40;84.40;;;;;;5114373;28;20058;-71
2021/05/24 05:17:25;;;;;;;0.10;0.10;;;11.40;84.50;;;;;;5113849;28;20054;-72
2021/05/24 05:19:51;;;;;;;0.10;0.10;;;11.40;84.60;;;;;;5115824;27;20053;-71
2021/05/24 05:22:17;;;;;;;0.00;0.00;;;11.40;84.70;;;;;;5122384;27;20054;-71
2021/05/24 05:24:44;;;;;;;0.00;0.00;;;11.30;84.70;;;;;;5113499;28;20427;-71
2021/05/24 05:27:10;;;;;;;0.05;0.05;;;11.30;84.70;;;;;;5113926;28;20048;-71
2021/05/24 05:29:36;;;;;;;0.00;0.00;;;11.30;84.80;;;;;;5125535;27;20047;-71
2021/05/24 05:32:03;;;;;;;0.00;0.00;;;11.30;84.80;;;;;;5113936;28;20050;-72
2021/05/24 05:34:29;;;;;;;0.05;0.05;;;11.30;84.70;;;;;;5113828;28;20058;-71
2021/05/24 05:36:55;;;;;;;0.00;0.00;;;11.30;84.50;;;;;;5114038;28;20083;-71
2021/05/24 05:39:22;;;;;;;0.00;0.00;;;11.30;84.60;;;;;;5113510;28;20126;-71
2021/05/24 05:41:48;;;;;;;0.00;0.00;;;11.30;84.60;;;;;;5113794;28;20043;-71
2021/05/24 05:44:14;;;;;;;0.05;0.05;;;11.30;84.50;;;;;;5116657;27;20112;-71
2021/05/24 05:46:41;;;;;;;0.10;0.10;;;11.40;84.20;;;;;;5119708;27;20039;-71
2021/05/24 05:49:07;;;;;;;0.00;0.00;;;11.40;84.00;;;;;;5113619;28;20039;-71
2021/05/24 05:51:34;;;;;;;0.00;0.00;;;11.50;83.60;;;;;;5113342;28;20052;-73
2021/05/24 05:54:00;;;;;;;0.00;0.00;;;11.50;83.20;;;;;;5113462;28;20521;-71
2021/05/24 05:56:27;;;;;;;0.00;0.00;;;11.60;83.20;;;;;;5113438;28;20370;-71
2021/05/24 05:58:53;;;;;;;0.00;0.00;;;11.60;82.90;;;;;;5113376;28;20527;-71
2021/05/24 06:01:21;;;;;;;0.00;0.00;;;11.60;82.50;;;;;;5113269;28;20052;-72
2021/05/24 06:03:47;;;;;;;0.00;0.00;;;11.70;82.50;;;;;;5113092;28;20415;-71
2021/05/24 06:06:14;;;;;;;0.10;0.10;;;11.70;82.30;;;;;;5113416;28;20047;-71
2021/05/24 06:08:40;;;;;;;0.00;0.00;;;11.80;82.10;;;;;;5112925;28;20047;-71
2021/05/24 06:11:07;;;;;;;0.00;0.00;;;11.90;81.80;;;;;;5106672;28;20412;-71
2021/05/24 06:13:34;;;;;;;0.00;0.00;;;11.90;81.10;;;;;;5107041;28;20059;-72
2021/05/24 06:16:00;;;;;;;0.00;0.00;;;11.90;81.10;;;;;;5116855;27;20075;-71
2021/05/24 06:18:26;;;;;;;0.00;0.00;;;11.90;81.00;;;;;;5120444;27;20048;-71
2021/05/24 06:20:53;;;;;;;0.03;0.03;;;12.00;80.80;;;;;;5112779;28;20055;-71
2021/05/24 06:23:19;;;;;;;0.10;0.10;;;12.00;80.90;;;;;;5118369;27;20042;-71
2021/05/24 06:25:45;;;;;;;0.00;0.00;;;12.00;80.70;;;;;;5121488;27;20139;-71
2021/05/24 06:28:12;;;;;;;0.00;0.00;;;12.10;80.70;;;;;;5113976;27;20118;-71
2021/05/24 06:30:39;;;;;;;0.00;0.00;;;12.20;80.60;;;;;;5112599;28;20047;-72
2021/05/24 06:33:05;;;;;;;0.00;0.00;;;12.20;80.30;;;;;;5094521;28;20048;-71
2021/05/24 06:35:32;;;;;;;0.00;0.00;;;12.10;80.10;;;;;;5112512;28;20055;-72
2021/05/24 06:37:59;;;;;;;0.00;0.00;;;12.20;79.80;;;;;;5112363;28;20434;-71
2021/05/24 06:40:26;;;;;;;0.00;0.00;;;12.20;79.80;;;;;;5112621;28;20050;-71
2021/05/24 06:42:52;;;;;;;0.00;0.00;;;12.30;79.50;;;;;;5094063;28;20054;-71
2021/05/24 06:45:19;;;;;;;0.00;0.00;;;12.30;78.70;;;;;;5125438;27;20040;-71
2021/05/24 06:47:46;;;;;;;0.00;0.00;;;12.40;78.60;;;;;;5111854;28;20517;-72
2021/05/24 06:50:14;;;;;;;0.00;0.00;;;12.40;78.70;;;;;;5112308;28;20044;-72
2021/05/24 06:52:41;;;;;;;0.00;0.00;;;12.40;78.50;;;;;;5112171;28;20486;-72
2021/05/24 06:55:09;;;;;;;0.00;0.00;;;12.40;78.60;;;;;;5112328;28;20158;-72
2021/05/24 06:57:35;;;;;;;0.00;0.00;;;12.30;78.40;;;;;;5112412;28;20043;-72
2021/05/24 07:00:04;;;;;;;0.00;0.00;;;12.20;75.50;;;;;;5112007;28;20055;-72
2021/05/24 07:02:30;;;;;;;0.10;0.10;;;12.10;74.40;;;;;;5112774;28;20048;-71
2021/05/24 07:04:57;;;;;;;0.00;0.00;;;12.00;72.70;;;;;;5112515;28;20160;-71
2021/05/24 07:07:23;;;;;;;0.00;0.00;;;11.90;72.70;;;;;;5111712;28;20050;-72
2021/05/24 07:09:49;;;;;;;0.00;0.00;;;11.80;71.80;;;;;;5112317;28;20082;-71
2021/05/24 07:12:16;;;;;;;0.00;0.00;;;11.70;72.00;;;;;;5101485;27;20085;-71
2021/05/24 07:14:45;;;;;;;0.00;0.00;;;11.70;72.50;;;;;;5118117;27;20108;-72
2021/05/24 07:17:12;;;;;;;0.00;0.00;;;11.60;72.70;;;;;;5111898;28;20541;-72
2021/05/24 07:19:38;;;;;;;0.00;0.00;;;11.60;72.90;;;;;;5111997;28;20043;-71
2021/05/24 07:22:04;;;;;;;0.10;0.10;;;11.50;73.00;;;;;;5111635;28;20044;-71
2021/05/24 07:24:31;;;;;;;0.00;0.00;;;11.40;74.00;;;;;;5111699;28;20429;-71
2021/05/24 07:26:57;;;;;;;0.00;0.00;;;11.40;74.80;;;;;;5093275;28;20047;-71
2021/05/24 07:29:23;;;;;;;0.03;0.03;;;11.40;74.90;;;;;;5111801;28;20047;-71
2021/05/24 07:31:50;;;;;;;0.00;0.00;;;11.30;74.70;;;;;;5090589;28;20455;-71
2021/05/24 07:34:16;;;;;;;0.00;0.00;;;11.30;75.20;;;;;;5104822;28;20047;-71
2021/05/24 07:36:42;;;;;;;0.10;0.10;;;11.30;75.40;;;;;;5114303;28;20055;-71
2021/05/24 07:39:09;;;;;;;0.00;0.00;;;11.30;75.00;;;;;;5112710;28;20058;-71
2021/05/24 07:41:38;;;;;;;0.10;0.10;;;11.30;75.10;;;;;;5111607;28;20044;-71
2021/05/24 07:44:05;;;;;;;0.10;0.10;;;11.30;75.10;;;;;;5111788;28;20086;-71
2021/05/24 07:46:32;;;;;;;0.00;0.00;;;11.30;75.20;;;;;;5111521;28;20075;-71
2021/05/24 07:48:59;;;;;;;0.10;0.10;;;11.40;75.50;;;;;;5121360;28;20044;-71
2021/05/24 07:51:25;;;;;;;0.00;0.00;;;11.50;75.80;;;;;;5111346;28;20083;-71
2021/05/24 07:53:53;;;;;;;0.00;0.00;;;11.70;76.00;;;;;;5119360;28;20096;-71
2021/05/24 07:56:20;;;;;;;0.00;0.00;;;11.90;76.00;;;;;;5111635;28;20523;-72
2021/05/24 07:58:46;;;;;;;0.00;0.00;;;12.10;75.30;;;;;;5111813;28;20079;-71
2021/05/24 08:01:12;;;;;;;0.00;0.00;;;12.20;74.60;;;;;;5093143;28;20063;-72
2021/05/24 08:03:39;;;;;;;0.00;0.00;;;12.40;74.40;;;;;;5114167;27;20105;-72
2021/05/24 08:06:05;;;;;;;0.00;0.00;;;12.70;73.20;;;;;;5110655;28;20512;-72
2021/05/24 08:08:32;;;;;;;0.00;0.00;;;12.80;72.70;;;;;;5111645;28;20122;-73
2021/05/24 08:10:58;;;;;;;0.00;0.00;;;13.00;71.00;;;;;;5111549;28;20130;-73
2021/05/24 08:13:26;;;;;;;0.00;0.00;;;13.20;70.60;;;;;;5112418;28;20104;-73
2021/05/24 08:15:53;;;;;;;0.00;0.00;;;13.40;69.30;;;;;;5114523;28;20463;-73
2021/05/24 08:18:19;;;;;;;0.00;0.00;;;13.60;68.50;;;;;;5114865;28;20043;-73
2021/05/24 08:20:45;;;;;;;0.00;0.00;;;13.70;67.70;;;;;;5114959;28;20047;-73
2021/05/24 08:23:12;;;;;;;0.00;0.00;;;13.80;68.00;;;;;;5114825;28;20513;-73
2021/05/24 08:25:38;;;;;;;0.00;0.00;;;14.10;68.00;;;;;;5114749;28;20436;-73
2021/05/24 08:28:04;;;;;;;0.00;0.00;;;14.30;66.90;;;;;;5114184;28;20128;-73
2021/05/24 08:30:32;;;;;;;0.00;0.00;;;14.50;64.80;;;;;;5114754;28;20047;-73
2021/05/24 08:32:59;;;;;;;0.00;0.00;;;14.50;64.10;;;;;;5113982;28;20506;-73
2021/05/24 08:35:25;;;;;;;0.00;0.00;;;14.40;64.00;;;;;;5111663;27;20043;-73
2021/05/24 08:37:52;;;;;;;0.00;0.00;;;14.50;64.10;;;;;;5114021;27;20481;-73
2021/05/24 08:40:18;;;;;;;0.00;0.00;;;14.50;64.60;;;;;;5112921;28;20075;-73
2021/05/24 08:42:46;;;;;;;0.00;0.00;;;14.80;65.00;;;;;;5112901;28;20085;-73
2021/05/24 08:45:13;;;;;;;0.00;0.00;;;14.90;62.40;;;;;;5112479;28;20055;-73
2021/05/24 08:47:39;;;;;;;0.00;0.00;;;15.10;63.20;;;;;;5112769;28;20051;-73
2021/05/24 08:50:07;;;;;;;0.00;0.00;;;15.30;62.50;;;;;;5112770;28;20134;-73
2021/05/24 08:52:33;;;;;;;0.00;0.00;;;15.50;61.60;;;;;;5112498;28;20044;-73
2021/05/24 08:54:59;;;;;;;0.00;0.00;;;15.60;61.80;;;;;;5113123;28;20039;-73
2021/05/24 08:57:26;;;;;;;0.00;0.00;;;15.80;61.60;;;;;;5112789;28;20134;-74
2021/05/24 08:59:52;;;;;;;0.00;0.00;;;15.90;60.50;;;;;;5113177;28;20486;-75
2021/05/24 09:02:19;;;;;;;0.00;0.00;;;16.00;58.00;;;;;;5112645;28;20111;-75
2021/05/24 09:04:49;;;;;;;0.00;0.00;;;16.00;58.50;;;;;;5112475;28;20648;-75
2021/05/24 09:07:17;;;;;;;0.00;0.00;;;16.10;59.20;;;;;;5112997;28;20128;-74
2021/05/24 09:10:05;;;;;;;0.00;0.00;;;16.20;59.30;;;;;;5110586;28;21023;-76
2021/05/24 09:12:32;;;;;;;0.00;0.00;;;16.40;59.80;;;;;;5109649;28;20054;-75
2021/05/24 09:15:01;;;;;;;0.00;0.00;;;16.50;58.60;;;;;;5112126;28;20135;-74
2021/05/24 09:17:43;;;;;;;0.00;0.00;;;16.70;58.80;;;;;;5112275;28;20043;-74
2021/05/24 09:20:29;;;;;;;0.00;0.00;;;16.90;57.00;;;;;;5092193;28;20055;-75
2021/05/24 09:23:05;;;;;;;0.00;0.00;;;16.90;57.00;;;;;;5111462;28;20036;-75
2021/05/24 09:26:12;;;;;;;0.00;0.00;;;17.00;57.60;;;;;;5114735;27;20059;-74
2021/05/24 09:28:52;;;;;;;0.00;0.00;;;17.40;55.50;;;;;;5033742;28;20092;-78
2021/05/24 09:31:26;;;;;;;0.00;0.00;;;17.50;54.50;;;;;;5031224;28;20059;-74
2021/05/24 09:33:56;;;;;;;0.00;0.00;;;17.30;53.10;;;;;;5034115;28;20438;-74
2021/05/24 09:36:25;;;;;;;0.00;0.00;;;17.20;53.90;;;;;;5036006;28;20053;-75
2021/05/24 09:38:53;;;;;;;0.00;0.00;;;17.10;53.70;;;;;;5033454;28;20129;-76
2021/05/24 09:41:21;;;;;;;0.00;0.00;;;17.10;53.10;;;;;;5034617;28;20050;-74
2021/05/24 09:43:53;;;;;;;0.00;0.00;;;17.10;52.20;;;;;;5046783;28;20060;-76
2021/05/24 09:46:30;;;;;;;0.00;0.00;;;17.10;53.00;;;;;;5031034;28;20042;-75
2021/05/24 09:49:02;;;;;;;0.00;0.00;;;17.30;52.70;;;;;;5033504;28;20041;-77
2021/05/24 09:51:33;;;;;;;0.00;0.00;;;17.40;52.40;;;;;;5041938;28;20072;-74
2021/05/24 09:54:06;;;;;;;0.00;0.00;;;17.50;52.00;;;;;;5047438;28;20194;-74
2021/05/24 09:56:49;;;;;;;0.00;0.00;;;17.80;52.40;;;;;;5031776;28;20072;-72
2021/05/24 09:59:18;;;;;;;0.00;0.00;;;18.10;50.50;;;;;;5066218;28;20043;-74
2021/05/24 10:01:48;;;;;;;0.00;0.00;;;17.80;50.00;;;;;;5112844;28;20400;-74
2021/05/24 10:04:25;;;;;;;0.00;0.00;;;18.00;50.60;;;;;;5117752;27;20529;-71
2021/05/24 10:06:52;;;;;;;0.00;0.00;;;18.10;49.70;;;;;;5109646;28;20781;-73
2021/05/24 10:09:19;;;;;;;0.00;0.00;;;18.30;49.60;;;;;;5111391;28;20048;-73
2021/05/24 10:11:50;;;;;;;0.00;0.00;;;18.30;49.50;;;;;;5093375;28;20079;-72
2021/05/24 10:14:21;;;;;;;0.00;0.00;;;18.20;49.00;;;;;;5110645;28;20530;-72
2021/05/24 10:16:51;;;;;;;0.00;0.00;;;18.20;48.50;;;;;;5112176;28;20517;-72
2021/05/24 10:19:19;;;;;;;0.00;0.00;;;18.40;48.80;;;;;;5112838;28;20054;-68
2021/05/24 10:21:48;;;;;;;0.00;0.00;;;18.40;47.40;;;;;;5112906;28;20453;-71
2021/05/24 10:24:16;;;;;;;0.00;0.00;;;18.40;46.90;;;;;;5112517;28;20044;-71
2021/05/24 10:26:44;;;;;;;0.00;0.00;;;18.40;48.10;;;;;;5094094;28;20537;-70
2021/05/24 10:29:11;;;;;;;0.00;0.00;;;18.30;48.20;;;;;;5112619;28;20119;-71
2021/05/24 10:31:38;;;;;;;0.00;0.00;;;18.10;47.60;;;;;;5111097;28;20152;-71
2021/05/24 10:34:25;;;;;;;0.00;0.00;;;17.80;46.40;;;;;;5108411;28;20126;-71
2021/05/24 10:37:05;;;;;;;0.00;0.00;;;17.50;48.20;;;;;;5108415;28;20108;-71
2021/05/24 10:39:43;;;;;;;0.00;0.00;;;17.00;49.50;;;;;;5108085;28;20043;-69
2021/05/24 10:42:13;;;;;;;0.00;0.00;;;16.40;51.60;;;;;;5090349;28;20036;-78
2021/05/24 10:44:43;;;;;;;0.00;0.00;;;15.70;53.50;;;;;;5110881;28;20226;-71
2021/05/24 10:47:29;;;;;;;0.00;0.00;;;15.00;55.20;;;;;;5108909;28;20090;-71
2021/05/24 10:50:06;;;;;;;0.10;0.00;;;14.40;56.70;;;;;;5110709;28;20040;-71
2021/05/24 10:52:37;;;;;;;0.00;0.00;;;14.10;57.70;;;;;;5090497;28;20531;-70
2021/05/24 10:55:25;;;;;;;0.00;0.00;;;13.90;58.00;;;;;;5092070;28;20039;-69
2021/05/24 10:57:55;;;;;;;0.00;0.00;;;13.70;58.80;;;;;;5112009;28;20563;-76
2021/05/24 11:00:22;;;;;;;0.00;0.00;;;13.50;59.80;;;;;;5111045;28;20044;-69
2021/05/24 11:02:53;;;;;;;0.00;0.00;;;13.40;60.80;;;;;;5110839;28;20197;-68
2021/05/24 11:05:24;;;;;;;0.00;0.00;;;13.30;62.30;;;;;;5110608;28;20044;-69
2021/05/24 11:07:54;;;;;;;0.00;0.00;;;13.30;63.60;;;;;;5108431;28;20036;-68
2021/05/24 11:10:25;;;;;;;0.00;0.00;;;13.40;63.90;;;;;;5110800;28;20130;-70
2021/05/24 11:13:10;;;;;;;0.10;0.10;;;13.50;64.30;;;;;;5108153;28;20091;-69
2021/05/24 11:15:44;;;;;;;0.00;0.00;;;13.60;64.50;;;;;;5110752;28;20483;-68
2021/05/24 11:18:24;;;;;;;0.00;0.00;;;13.70;64.50;;;;;;5110847;28;20043;-69
2021/05/24 11:21:01;;;;;;;0.00;0.00;;;13.80;65.30;;;;;;5110559;28;20085;-68
2021/05/24 11:26:12;;;;;;;0.00;0.00;;;14.10;62.60;;;;;;5110497;28;20120;-67
2021/05/24 11:29:02;;;;;;;0.00;0.00;;;14.10;60.70;;;;;;5109386;28;20043;-67
2021/05/24 11:31:35;;;;;;;0.00;0.00;;;13.80;59.40;;;;;;5110555;28;20059;-67
2021/05/24 11:34:25;;;;;;;0.00;0.00;;;13.60;60.00;;;;;;5110106;28;20067;-68
2021/05/24 11:37:02;;;;;;;0.00;0.00;;;13.40;60.50;;;;;;5107397;28;20044;-69
2021/05/24 11:39:31;;;;;;;0.00;0.00;;;13.20;61.40;;;;;;5104922;28;20047;-68
2021/05/24 11:42:05;;;;;;;0.00;0.00;;;13.10;62.00;;;;;;5110015;28;20558;-67
2021/05/24 11:44:45;;;;;;;0.00;0.00;;;13.00;62.40;;;;;;5110269;28;20128;-68
2021/05/24 11:47:14;;;;;;;0.00;0.00;;;12.90;62.70;;;;;;5110018;28;20036;-67
2021/05/24 11:49:50;;;;;;;0.00;0.00;;;12.90;62.90;;;;;;5114782;28;20431;-67
2021/05/24 11:52:19;;;;;;;0.00;0.00;;;12.80;63.10;;;;;;5113742;28;20050;-70
2021/05/24 11:54:50;;;;;;;0.00;0.00;;;12.70;63.40;;;;;;5115045;28;20523;-72
2021/05/24 11:57:18;;;;;;;0.00;0.00;;;12.70;63.80;;;;;;5112955;28;20044;-69
2021/05/24 11:59:45;;;;;;;0.00;0.00;;;12.70;64.00;;;;;;5114556;28;20128;-70
2021/05/24 12:02:12;;;;;;;0.00;0.00;;;12.80;64.60;;;;;;5114527;28;20047;-68
2021/05/24 12:04:45;;;;;;;0.00;0.00;;;12.80;65.20;;;;;;5111674;28;20045;-69
2021/05/24 12:07:21;;;;;;;0.00;0.00;;;13.00;65.90;;;;;;5114899;28;20088;-77
2021/05/24 12:09:48;;;;;;;0.00;0.00;;;13.10;65.70;;;;;;5116621;28;20123;-74
2021/05/24 12:12:23;;;;;;;0.00;0.00;;;13.20;65.50;;;;;;5113377;28;20422;-79
2021/05/24 12:14:55;;;;;;;0.00;0.00;;;13.30;65.20;;;;;;5117214;28;20100;-72
2021/05/24 12:17:25;;;;;;;0.00;0.00;;;13.40;65.80;;;;;;5116169;28;20055;-72
2021/05/24 12:19:54;;;;;;;0.00;0.00;;;13.50;64.80;;;;;;5114568;28;20047;-75
2021/05/24 12:22:27;;;;;;;0.00;0.00;;;13.50;63.90;;;;;;5114414;28;20105;-77
2021/05/24 12:24:55;;;;;;;0.00;0.00;;;13.50;64.00;;;;;;5114214;28;20126;-73
2021/05/24 12:27:24;;;;;;;0.00;0.00;;;13.60;64.30;;;;;;5095658;28;20177;-74
2021/05/24 12:29:54;;;;;;;0.00;0.00;;;13.60;64.10;;;;;;5109710;28;20399;-74
2021/05/24 12:32:28;;;;;;;0.00;0.00;;;13.70;64.10;;;;;;5110664;28;20047;-71
2021/05/24 12:34:55;;;;;;;0.00;0.00;;;13.80;64.60;;;;;;5110585;28;20122;-70
2021/05/24 12:37:21;;;;;;;0.00;0.00;;;13.90;64.80;;;;;;5112698;28;20130;-70
2021/05/24 12:39:49;;;;;;;0.00;0.00;;;14.00;64.90;;;;;;5112516;28;20058;-72
2021/05/24 12:42:16;;;;;;;0.00;0.00;;;14.10;63.00;;;;;;5110006;28;20039;-71
2021/05/24 12:44:43;;;;;;;0.00;0.00;;;14.10;63.30;;;;;;5112451;28;20459;-71
2021/05/24 12:47:18;;;;;;;0.00;0.00;;;14.20;62.60;;;;;;5112606;28;20059;-71
2021/05/24 12:49:47;;;;;;;0.00;0.00;;;14.20;61.70;;;;;;5112725;28;20083;-71
2021/05/24 12:52:16;;;;;;;0.00;0.00;;;14.20;61.80;;;;;;5112605;28;20044;-71
2021/05/24 12:54:44;;;;;;;0.00;0.00;;;14.20;60.80;;;;;;5112890;28;20134;-71
2021/05/24 12:57:13;;;;;;;0.00;0.00;;;14.20;60.70;;;;;;5112509;28;20039;-70